This is the latest recevied weather packets stored in our database for station/object K1ADK-1. If no packets are shown the sender has not sent any weather packets the latest 10 day(s).
| Time | Temp. | Humidity | Pressure | Rain* | Wind** | Luminosity | Snow |
|---|---|---|---|---|---|---|---|
| 1777451117 | 8.89° C | 80% | 1016.4 hPa | 0 mm | - | 0 W/m² | - |
| 1777446937 | 9.44° C | 77% | 1017 hPa | 0 mm | - | 0 W/m² | - |
| 1777442716 | 10° C | 74% | 1017.7 hPa | 0 mm | - | 0 W/m² | - |
| 1777438516 | 10° C | 73% | 1019.1 hPa | 0 mm | - | 0 W/m² | - |
| 1777433716 | 10° C | 74% | 1018.5 hPa | 0 mm | - | 0 W/m² | - |
| 1777430136 | 10° C | 72% | 1018 hPa | 0 mm | - | 0 W/m² | - |
| 1777425936 | 10.56° C | 68% | 1018.8 hPa | 0 mm | - | 0 W/m² | - |
| 1777424156 | 11.11° C | 63% | 1018.5 hPa | 0 mm | - | 0 W/m² | - |
| 1777423516 | 11.11° C | 62% | 1018.4 hPa | 0 mm | - | 0 W/m² | - |
| 1777421116 | 12.22° C | 56% | 1018.2 hPa | 0 mm | - | 0 W/m² | - |
| 1777419916 | 12.78° C | 55% | 1018.1 hPa | 0 mm | - | 5 W/m² | - |
| 1777414516 | 14.44° C | 52% | 1018.2 hPa | 0 mm | - | 58 W/m² | - |
| 1777409116 | 16.67° C | 44% | 1018.8 hPa | 0 mm | - | 123 W/m² | - |
| 1777404916 | 18.89° C | 41% | 1019.5 hPa | 0 mm | - | 556 W/m² | - |
| 1777404315 | 18.89° C | 43% | 1019.8 hPa | 0 mm | - | 484 W/m² | - |
| 1777401916 | 17.78° C | 44% | 1020.1 hPa | 0 mm | - | 452 W/m² | - |
| 1777400115 | 17.78° C | 44% | 1020.3 hPa | 0 mm | - | 428 W/m² | - |
| 1777397715 | 18.33° C | 43% | 1020.4 hPa | 0 mm | - | 510 W/m² | - |
| 1777395315 | 18.89° C | 43% | 1020.8 hPa | 0 mm | - | 673 W/m² | - |
| 1777390537 | 16.67° C | 45% | 1021.5 hPa | 0 mm | - | 584 W/m² | - |
| 1777389917 | 17.22° C | 46% | 1021.6 hPa | 0 mm | - | 623 W/m² | - |
| 1777380917 | 14.44° C | 50% | 1021.7 hPa | 0 mm | - | 428 W/m² | - |
| 1777380317 | 13.89° C | 52% | 1021.8 hPa | 0 mm | - | 401 W/m² | - |
| 1777377917 | 10° C | 67% | 1022.1 hPa | 0 mm | - | 146 W/m² | - |
| 1777373737 | 5° C | 87% | 1021.7 hPa | 0 mm | - | 40 W/m² | - |
* Rain latest hour (hover to see other rain measurements)
** Current wind speed in m/s (hover to see current wind gust speed)